Etusivu
METAR-TAF:

Lentoasemat :

Kittilä, Suomi

Kittilän lentoasema

Leveyspiiri: 67-42N, Pituuspiiri: 024-51E, korkeus merenpinnasta: 196 m

METAR: puuttuu

Aika: 20:18 (18:18 UTC)

Sääennuste

Tämä raportti tehtiin 6 tuntia ja 40 minuuttia sitten, kello 11.38 UTC
Ennuste voimassa 06. päivästä klo 12 UTC - 06. päivään klo 18 UTC
Tuuli 6 kn etelästä/kaakosta
Näkyvyys: 4000 m
Muutamia pilviä 100 ft:n korkeudessa
utua
Ajoittain
06. päivästä klo 12 UTC - 06. päivään klo 15 UTC
Näkyvyys: 0500 m
100 ft:n korkeudessa
jäätävää sumua

TAF: EFKT 061138Z 0612/0618 16006KT 4000 BR FEW001 TEMPO 0612/0615 0500 FZFG VV001

METAR-TAF

Säähavainnot ja -ennusteet yli 4000 lentoasemalta (METAR- ja TAF-raportit).

Käytössä olevat sääasemat on merkitty karttaan keltaisilla ja punaisilla pisteillä.

Aseta hiiri pisteen päälle nähdäksesi sääaseman nimen.

Klikkaa sitten nähdäksesi säähavainnot ja -ennusteet.

Kartan vaihtaminen: klikkaa mustalla rastilla varustettuja vihreitä pisteitä, niin voit zoomata sisään; viivalla varustettua vihreää pistettä, niin voit zoomata ulos tai vihreitä nuolia, niin pääset viereisille kartoille.


METAR-TAF: